Time;durP1;ratioP1;P1;durP2;ratioP2;P2;SDS_P1;SDS_P2;PMS_P1;PMS_P2;Temp;Humidity;BMP_temperature;BMP_pressure;BME280_temperature;BME280_humidity;BME280_pressure;Samples;Min_cycle;Max_cycle;Signal;HPM_P1;HPM_P2
2023/08/28 00:00:46;;;;;;;5.17;1.70;;;13.90;66.00;;;;;;5106728;28;20404;-71
2023/08/28 00:03:12;;;;;;;3.28;1.70;;;13.90;66.20;;;;;;5105401;28;20445;-71
2023/08/28 00:05:37;;;;;;;5.67;1.73;;;13.90;65.90;;;;;;5106475;28;20504;-72
2023/08/28 00:08:04;;;;;;;3.95;1.38;;;13.90;66.50;;;;;;5103879;28;20509;-72
2023/08/28 00:10:31;;;;;;;3.05;1.48;;;13.90;67.10;;;;;;5096763;28;20517;-72
2023/08/28 00:12:56;;;;;;;4.55;1.50;;;13.90;66.90;;;;;;5097553;28;20412;-72
2023/08/28 00:15:22;;;;;;;4.03;1.53;;;13.80;67.10;;;;;;5103210;28;20423;-72
2023/08/28 00:17:48;;;;;;;3.70;1.10;;;13.80;67.20;;;;;;5092095;28;20402;-72
2023/08/28 00:20:16;;;;;;;7.57;2.13;;;13.80;67.80;;;;;;5092367;28;20396;-72
2023/08/28 00:22:42;;;;;;;5.28;1.52;;;13.80;67.90;;;;;;5102345;28;20408;-72
2023/08/28 00:25:08;;;;;;;6.13;2.00;;;13.80;67.70;;;;;;5102530;28;20969;-72
2023/08/28 00:27:34;;;;;;;3.45;1.42;;;13.80;67.50;;;;;;5101821;28;20408;-72
2023/08/28 00:30:00;;;;;;;4.45;1.88;;;13.70;68.10;;;;;;5102125;28;20464;-72
2023/08/28 00:32:26;;;;;;;6.37;1.80;;;13.70;68.40;;;;;;5100687;28;20412;-72
2023/08/28 00:34:53;;;;;;;6.32;1.70;;;13.70;69.10;;;;;;5095201;28;20924;-72
2023/08/28 00:37:18;;;;;;;4.97;1.60;;;13.70;69.30;;;;;;5097115;28;20787;-72
2023/08/28 00:39:44;;;;;;;3.50;1.73;;;13.60;69.20;;;;;;5091761;28;20404;-72
2023/08/28 00:42:09;;;;;;;4.43;1.92;;;13.60;69.90;;;;;;5101257;28;20473;-72
2023/08/28 00:44:35;;;;;;;3.70;1.93;;;13.60;70.30;;;;;;5111080;28;20401;-72
2023/08/28 00:47:02;;;;;;;4.35;1.70;;;13.60;70.10;;;;;;5108733;28;20476;-72
2023/08/28 00:49:29;;;;;;;4.75;1.60;;;13.60;71.00;;;;;;5110206;28;20404;-72
2023/08/28 00:51:55;;;;;;;3.88;1.83;;;13.60;71.00;;;;;;5109752;27;20407;-72
2023/08/28 00:54:21;;;;;;;4.10;1.80;;;13.60;71.80;;;;;;5110535;28;20454;-72
2023/08/28 00:56:48;;;;;;;3.28;1.60;;;13.60;72.40;;;;;;5094816;28;21020;-72
2023/08/28 00:59:15;;;;;;;4.73;1.90;;;13.70;72.80;;;;;;5109926;28;20938;-72
2023/08/28 01:01:41;;;;;;;4.45;1.73;;;13.70;72.90;;;;;;5108296;28;20446;-72
2023/08/28 01:04:07;;;;;;;3.60;1.70;;;13.70;72.30;;;;;;5109533;28;20446;-72
2023/08/28 01:06:45;;;;;;;2.88;1.60;;;13.70;71.60;;;;;;5107197;28;20811;-72
2023/08/28 01:09:24;;;;;;;2.95;1.80;;;13.60;71.50;;;;;;5107248;28;20422;-72
2023/08/28 01:11:54;;;;;;;4.60;1.55;;;13.60;71.70;;;;;;5106349;28;20407;-72
2023/08/28 01:14:25;;;;;;;4.85;1.50;;;13.60;72.00;;;;;;5107511;28;20557;-72
2023/08/28 01:17:05;;;;;;;4.88;1.80;;;13.60;72.00;;;;;;5105701;28;20405;-71
2023/08/28 01:19:36;;;;;;;2.42;1.52;;;13.60;72.40;;;;;;5105603;28;20400;-72
2023/08/28 01:22:21;;;;;;;2.80;1.88;;;13.60;72.50;;;;;;5108204;28;20405;-72
2023/08/28 01:24:51;;;;;;;4.57;1.80;;;13.60;72.30;;;;;;5105843;28;20494;-72
2023/08/28 01:27:26;;;;;;;5.13;1.60;;;13.50;72.70;;;;;;5108408;28;20494;-72
2023/08/28 01:30:05;;;;;;;3.85;1.50;;;13.60;72.50;;;;;;5094330;28;20397;-72
2023/08/28 01:32:31;;;;;;;2.90;1.70;;;13.50;72.80;;;;;;5102950;28;20474;-72
2023/08/28 01:34:57;;;;;;;4.40;1.90;;;13.60;72.60;;;;;;5106847;28;20416;-72
2023/08/28 01:37:27;;;;;;;5.03;1.67;;;13.50;72.40;;;;;;5104332;28;20919;-72
2023/08/28 01:39:59;;;;;;;3.47;1.80;;;13.50;72.90;;;;;;5100080;28;20463;-72
2023/08/28 01:42:26;;;;;;;3.65;1.50;;;13.50;73.00;;;;;;5101188;28;20405;-72
2023/08/28 01:44:54;;;;;;;3.45;1.70;;;13.50;72.90;;;;;;5099830;28;20472;-72
2023/08/28 01:47:24;;;;;;;3.30;1.90;;;13.50;72.50;;;;;;5109081;28;20487;-72
2023/08/28 01:49:53;;;;;;;3.13;1.60;;;13.50;72.90;;;;;;5108302;28;20436;-72
2023/08/28 01:52:19;;;;;;;4.20;1.85;;;13.40;72.90;;;;;;5108534;28;21298;-71
2023/08/28 01:54:45;;;;;;;4.05;1.30;;;13.40;72.50;;;;;;5097906;28;20434;-72
2023/08/28 01:57:10;;;;;;;4.72;1.40;;;13.50;73.40;;;;;;5106456;28;20396;-71
2023/08/28 01:59:36;;;;;;;3.27;1.40;;;13.50;73.70;;;;;;5109242;28;20408;-71
2023/08/28 02:02:02;;;;;;;5.30;1.40;;;13.50;73.70;;;;;;5089029;28;20437;-71
2023/08/28 02:04:27;;;;;;;3.70;1.40;;;13.50;73.40;;;;;;5100395;28;20403;-71
2023/08/28 02:06:53;;;;;;;6.40;1.85;;;13.50;73.40;;;;;;5106810;28;20930;-71
2023/08/28 02:09:19;;;;;;;3.45;1.50;;;13.50;72.70;;;;;;5107431;27;20400;-71
2023/08/28 02:11:45;;;;;;;3.60;1.90;;;13.50;73.70;;;;;;5106061;28;20438;-71
2023/08/28 02:14:11;;;;;;;2.97;1.60;;;13.50;73.80;;;;;;5107618;28;20447;-71
2023/08/28 02:16:38;;;;;;;3.08;1.58;;;13.50;73.70;;;;;;5106543;28;20404;-71
2023/08/28 02:19:05;;;;;;;3.50;1.30;;;13.50;74.90;;;;;;5107508;28;20969;-71
2023/08/28 02:21:30;;;;;;;3.60;1.58;;;13.50;75.00;;;;;;5100328;28;20922;-71
2023/08/28 02:23:56;;;;;;;2.63;1.73;;;13.50;74.70;;;;;;5099545;28;20400;-71
2023/08/28 02:26:21;;;;;;;3.10;1.70;;;13.50;75.70;;;;;;5093478;28;20415;-72
2023/08/28 02:28:47;;;;;;;2.20;1.10;;;13.50;75.90;;;;;;5097569;28;20402;-71
2023/08/28 02:31:13;;;;;;;4.10;1.10;;;13.60;76.30;;;;;;5093073;28;20419;-71
2023/08/28 02:33:39;;;;;;;3.45;1.00;;;13.60;76.20;;;;;;5087045;28;20495;-71
2023/08/28 02:36:04;;;;;;;3.42;1.00;;;13.60;76.80;;;;;;5092546;28;20418;-72
2023/08/28 02:38:30;;;;;;;2.67;0.90;;;13.60;77.40;;;;;;5101247;28;20396;-71
2023/08/28 02:41:04;;;;;;;3.50;0.90;;;13.70;77.70;;;;;;5096446;28;20413;-71
2023/08/28 02:43:30;;;;;;;3.60;1.40;;;13.70;77.50;;;;;;5106063;28;20416;-72
2023/08/28 02:45:55;;;;;;;3.43;1.50;;;13.70;76.60;;;;;;5108360;28;20403;-71
2023/08/28 02:48:21;;;;;;;4.10;1.30;;;13.70;77.20;;;;;;5103606;28;20407;-72
2023/08/28 02:50:50;;;;;;;3.33;1.20;;;13.70;77.30;;;;;;5085541;28;20426;-72
2023/08/28 02:53:16;;;;;;;2.63;1.63;;;13.70;77.00;;;;;;5105074;28;20416;-72
2023/08/28 02:55:42;;;;;;;4.55;2.17;;;13.70;76.80;;;;;;5107618;28;20403;-72
2023/08/28 02:58:09;;;;;;;3.10;1.95;;;13.70;77.00;;;;;;5103336;28;20400;-72
2023/08/28 03:00:41;;;;;;;5.60;1.92;;;13.70;77.10;;;;;;5094450;28;20435;-72
2023/08/28 03:03:08;;;;;;;5.25;2.55;;;13.60;76.80;;;;;;5104037;28;20915;-72
2023/08/28 03:05:33;;;;;;;3.73;2.20;;;13.60;76.90;;;;;;5095885;28;20425;-72
2023/08/28 03:07:59;;;;;;;3.80;2.05;;;13.60;76.60;;;;;;5097981;28;20407;-72
2023/08/28 03:10:25;;;;;;;5.53;2.60;;;13.60;76.80;;;;;;5107892;28;20473;-72
2023/08/28 03:12:50;;;;;;;4.40;2.40;;;13.50;76.90;;;;;;5108503;28;20424;-72
2023/08/28 03:15:16;;;;;;;6.43;2.50;;;13.40;76.30;;;;;;5107949;28;20776;-72
2023/08/28 03:17:41;;;;;;;5.33;2.20;;;13.50;76.50;;;;;;5099327;28;20397;-71
2023/08/28 03:20:09;;;;;;;5.67;2.60;;;13.40;76.20;;;;;;5090021;28;20421;-71
2023/08/28 03:22:35;;;;;;;5.50;2.80;;;13.40;76.40;;;;;;5107835;28;20491;-72
2023/08/28 03:25:01;;;;;;;6.40;2.60;;;13.40;76.30;;;;;;5090560;28;20489;-71
2023/08/28 03:27:27;;;;;;;3.05;2.45;;;13.40;75.90;;;;;;5097393;28;20396;-71
2023/08/28 03:29:52;;;;;;;4.57;2.60;;;13.30;76.10;;;;;;5106150;28;20436;-71
2023/08/28 03:32:18;;;;;;;3.88;2.38;;;13.30;76.70;;;;;;5106683;28;20396;-71
2023/08/28 03:34:43;;;;;;;5.03;2.57;;;13.30;76.80;;;;;;5105728;28;20453;-71
2023/08/28 03:37:09;;;;;;;6.07;2.80;;;13.20;76.70;;;;;;5107051;28;20436;-72
2023/08/28 03:39:34;;;;;;;3.27;2.50;;;13.20;76.90;;;;;;5103939;28;20772;-71
2023/08/28 03:42:00;;;;;;;4.53;2.30;;;13.20;76.50;;;;;;5086993;28;20413;-72
2023/08/28 03:44:26;;;;;;;6.37;2.70;;;13.10;76.70;;;;;;5088578;28;20978;-70
2023/08/28 03:46:52;;;;;;;6.03;2.57;;;13.20;77.00;;;;;;5090105;28;20503;-72
2023/08/28 03:49:18;;;;;;;3.47;2.25;;;13.10;76.90;;;;;;5107457;28;20392;-72
2023/08/28 03:51:44;;;;;;;5.95;2.80;;;13.10;77.40;;;;;;5107726;28;20396;-71
2023/08/28 03:54:12;;;;;;;4.18;2.30;;;13.10;77.30;;;;;;5095111;28;20425;-71
2023/08/28 03:56:37;;;;;;;4.38;2.30;;;13.10;77.30;;;;;;5108841;28;20449;-72
2023/08/28 03:59:03;;;;;;;2.70;2.20;;;13.10;77.30;;;;;;5091975;28;20398;-71
2023/08/28 04:01:29;;;;;;;4.20;2.20;;;13.10;77.10;;;;;;5088307;28;20402;-71
2023/08/28 04:03:54;;;;;;;5.22;2.13;;;13.00;77.00;;;;;;5087688;28;20394;-71
2023/08/28 04:06:21;;;;;;;4.57;2.43;;;13.00;77.00;;;;;;5087715;28;20402;-71
2023/08/28 04:08:47;;;;;;;4.25;2.15;;;13.00;76.80;;;;;;5102775;28;20408;-71
2023/08/28 04:11:13;;;;;;;3.80;2.35;;;13.00;77.20;;;;;;5107431;28;20415;-72
2023/08/28 04:13:38;;;;;;;4.97;2.43;;;12.90;77.20;;;;;;5094784;28;20520;-71
2023/08/28 04:16:05;;;;;;;3.47;2.28;;;12.90;77.60;;;;;;5092234;28;20489;-71
2023/08/28 04:18:31;;;;;;;4.80;2.30;;;12.90;77.90;;;;;;5107032;28;20402;-71
2023/08/28 04:20:57;;;;;;;5.82;2.42;;;12.90;78.20;;;;;;5110097;28;20480;-71
2023/08/28 04:23:23;;;;;;;6.20;2.23;;;12.90;78.30;;;;;;5110821;28;20419;-71
2023/08/28 04:25:48;;;;;;;3.42;2.47;;;12.80;78.10;;;;;;5112012;28;20400;-72
2023/08/28 04:28:15;;;;;;;3.00;2.00;;;12.80;77.80;;;;;;5111313;27;20424;-71
2023/08/28 04:30:42;;;;;;;4.97;2.77;;;12.80;77.90;;;;;;5111876;28;20404;-71
2023/08/28 04:33:07;;;;;;;5.37;2.87;;;12.80;77.80;;;;;;5109961;27;20434;-71
2023/08/28 04:35:33;;;;;;;4.63;2.60;;;12.80;78.30;;;;;;5110966;28;20480;-71
2023/08/28 04:37:59;;;;;;;3.75;2.45;;;12.70;78.10;;;;;;5110461;28;20413;-71
2023/08/28 04:40:24;;;;;;;7.17;2.70;;;12.70;78.40;;;;;;5101106;28;20408;-71
2023/08/28 04:42:50;;;;;;;4.70;2.60;;;12.70;78.50;;;;;;5093055;28;20401;-72
2023/08/28 04:45:16;;;;;;;3.90;2.50;;;12.70;78.80;;;;;;5109726;28;20824;-72
2023/08/28 04:47:41;;;;;;;6.90;2.90;;;12.70;78.70;;;;;;5095943;27;20405;-71
2023/08/28 04:50:07;;;;;;;5.67;2.70;;;12.60;78.70;;;;;;5110008;28;20404;-71
2023/08/28 04:52:33;;;;;;;5.55;2.85;;;12.60;79.00;;;;;;5106668;28;20405;-72
2023/08/28 04:54:58;;;;;;;6.88;2.83;;;12.60;79.20;;;;;;5108242;28;20544;-72
2023/08/28 04:57:24;;;;;;;6.23;2.60;;;12.60;79.60;;;;;;5105425;28;20408;-71
2023/08/28 04:59:50;;;;;;;4.97;2.60;;;12.60;79.90;;;;;;5108056;28;20400;-72
2023/08/28 05:02:15;;;;;;;4.97;2.83;;;12.60;80.20;;;;;;5104772;28;20411;-71
2023/08/28 05:04:41;;;;;;;4.43;2.55;;;12.60;80.20;;;;;;5106340;28;20812;-71
2023/08/28 05:07:07;;;;;;;5.23;2.90;;;12.70;80.50;;;;;;5094567;28;20406;-71
2023/08/28 05:09:33;;;;;;;5.50;2.90;;;12.60;80.40;;;;;;5104836;28;20790;-71
2023/08/28 05:11:59;;;;;;;4.75;3.08;;;12.60;80.20;;;;;;5102988;28;20479;-71
2023/08/28 05:14:24;;;;;;;7.68;3.28;;;12.60;79.80;;;;;;5104395;28;20485;-72
2023/08/28 05:16:50;;;;;;;4.50;2.60;;;12.60;80.40;;;;;;5093508;28;21843;-70
2023/08/28 05:19:15;;;;;;;4.18;2.65;;;12.60;80.90;;;;;;5104450;28;20396;-70
2023/08/28 05:21:41;;;;;;;6.40;3.00;;;12.60;81.20;;;;;;5099326;28;20414;-72
2023/08/28 05:24:07;;;;;;;5.05;3.00;;;12.70;81.70;;;;;;5090057;28;20989;-73
2023/08/28 05:26:33;;;;;;;4.47;3.20;;;12.70;82.10;;;;;;5097561;28;20445;-72
2023/08/28 05:28:58;;;;;;;4.67;3.03;;;12.80;82.40;;;;;;5095742;28;20461;-72
2023/08/28 05:31:24;;;;;;;5.07;3.13;;;12.80;82.30;;;;;;5100512;28;20443;-73
2023/08/28 05:33:49;;;;;;;5.60;3.10;;;12.90;82.40;;;;;;5100429;28;20934;-72
2023/08/28 05:36:15;;;;;;;3.95;2.80;;;12.90;82.00;;;;;;5101066;28;20433;-72
2023/08/28 05:38:40;;;;;;;3.60;2.60;;;12.90;82.10;;;;;;5100322;28;20400;-72
2023/08/28 05:41:06;;;;;;;4.43;2.70;;;13.00;81.80;;;;;;5094950;28;20517;-72
2023/08/28 05:43:32;;;;;;;4.57;2.53;;;13.00;81.40;;;;;;5101974;28;20806;-72
2023/08/28 05:45:57;;;;;;;3.85;2.65;;;13.00;82.00;;;;;;5091686;28;20394;-72
2023/08/28 05:48:23;;;;;;;5.80;3.00;;;13.20;82.30;;;;;;5102490;28;20410;-72
2023/08/28 05:50:49;;;;;;;5.20;2.50;;;13.20;81.80;;;;;;5103536;28;20861;-72
2023/08/28 05:53:15;;;;;;;6.35;2.38;;;13.20;82.00;;;;;;5098575;28;20494;-72
2023/08/28 05:55:40;;;;;;;4.33;2.50;;;13.30;82.20;;;;;;5093898;28;20436;-72
2023/08/28 05:58:06;;;;;;;6.05;2.53;;;13.40;82.30;;;;;;5090346;28;20433;-72
2023/08/28 06:00:31;;;;;;;3.77;2.33;;;13.50;82.10;;;;;;5090818;28;20439;-72
2023/08/28 06:02:57;;;;;;;3.53;1.90;;;13.60;82.20;;;;;;5102004;28;20420;-72
2023/08/28 06:05:23;;;;;;;4.30;2.10;;;13.70;82.10;;;;;;5103731;28;20889;-72
2023/08/28 06:07:48;;;;;;;4.82;2.28;;;13.80;82.00;;;;;;5109431;28;20766;-72
2023/08/28 06:10:19;;;;;;;5.47;2.27;;;13.80;81.60;;;;;;5108933;28;20417;-72
2023/08/28 06:12:45;;;;;;;5.65;2.15;;;13.90;81.80;;;;;;5109148;28;20400;-72
2023/08/28 06:15:13;;;;;;;4.72;2.17;;;13.90;82.10;;;;;;5105527;28;20906;-73
2023/08/28 06:17:39;;;;;;;5.35;2.05;;;14.00;82.00;;;;;;5086655;28;20419;-73
2023/08/28 06:20:08;;;;;;;4.57;2.28;;;14.10;81.80;;;;;;5108464;28;20449;-73
2023/08/28 06:22:34;;;;;;;4.57;2.17;;;14.10;81.50;;;;;;5099697;27;20410;-70
2023/08/28 06:24:59;;;;;;;5.15;2.10;;;14.10;81.60;;;;;;5102497;28;20455;-70
2023/08/28 06:27:25;;;;;;;6.17;2.30;;;14.10;81.40;;;;;;5108623;28;20409;-70
2023/08/28 06:29:51;;;;;;;4.78;2.10;;;14.10;81.90;;;;;;5106811;28;20910;-71
2023/08/28 06:32:16;;;;;;;5.50;1.70;;;14.20;81.60;;;;;;5107987;28;20468;-71
2023/08/28 06:34:42;;;;;;;5.53;1.80;;;14.20;81.90;;;;;;5106451;28;20931;-71
2023/08/28 06:37:07;;;;;;;3.23;1.50;;;14.30;82.20;;;;;;5108044;28;20434;-71
2023/08/28 06:39:33;;;;;;;5.47;1.55;;;14.30;82.20;;;;;;5105300;28;20428;-71
2023/08/28 06:41:58;;;;;;;6.43;1.47;;;14.40;82.30;;;;;;5089646;28;20402;-71
2023/08/28 06:44:24;;;;;;;5.38;1.40;;;14.50;81.80;;;;;;5103160;28;20404;-71
2023/08/28 06:46:50;;;;;;;4.70;1.07;;;14.50;81.70;;;;;;5108933;28;21012;-72
2023/08/28 06:49:16;;;;;;;2.33;1.07;;;14.60;81.80;;;;;;5107289;28;20479;-72
2023/08/28 06:51:42;;;;;;;4.65;1.23;;;14.70;81.70;;;;;;5108743;28;20536;-71
2023/08/28 06:54:09;;;;;;;3.93;1.10;;;14.80;81.60;;;;;;5106467;28;21118;-71
2023/08/28 06:56:34;;;;;;;4.20;1.20;;;14.80;81.20;;;;;;5107590;27;20396;-71
2023/08/28 06:59:00;;;;;;;4.80;1.10;;;14.90;81.20;;;;;;5103955;28;20769;-71
2023/08/28 07:01:26;;;;;;;2.57;1.00;;;15.00;81.00;;;;;;5094717;28;20469;-71
2023/08/28 07:03:51;;;;;;;4.65;1.10;;;15.10;80.60;;;;;;5104799;28;20400;-71
2023/08/28 07:06:18;;;;;;;2.33;1.10;;;15.20;80.40;;;;;;5095132;28;20412;-71
2023/08/28 07:08:43;;;;;;;4.35;1.20;;;15.30;79.40;;;;;;5092886;28;21529;-71
2023/08/28 07:11:09;;;;;;;2.47;1.23;;;15.30;78.90;;;;;;5107065;28;20392;-71
2023/08/28 07:13:34;;;;;;;3.95;1.40;;;15.40;78.30;;;;;;5103707;28;20431;-71
2023/08/28 07:16:01;;;;;;;3.70;1.30;;;15.40;78.50;;;;;;5082975;28;20400;-72
2023/08/28 07:18:27;;;;;;;5.35;1.20;;;15.50;77.90;;;;;;5103680;28;20415;-71
2023/08/28 07:20:53;;;;;;;3.93;1.10;;;15.60;77.40;;;;;;5094276;28;20420;-72
2023/08/28 07:23:19;;;;;;;2.65;1.02;;;15.60;76.80;;;;;;5102856;28;20398;-72
2023/08/28 07:25:44;;;;;;;3.10;0.90;;;15.70;76.50;;;;;;5105703;28;20446;-71
2023/08/28 07:28:10;;;;;;;3.28;0.77;;;15.80;76.30;;;;;;5102686;28;21190;-72
2023/08/28 07:30:36;;;;;;;3.70;0.80;;;15.90;76.20;;;;;;5088373;28;20410;-71
2023/08/28 07:33:03;;;;;;;4.80;0.90;;;16.00;75.60;;;;;;5097506;28;20889;-71
2023/08/28 07:35:34;;;;;;;3.78;1.00;;;16.10;76.00;;;;;;5088070;28;20427;-72
2023/08/28 07:38:02;;;;;;;2.97;1.00;;;16.20;76.00;;;;;;5098119;28;20908;-71
2023/08/28 07:40:28;;;;;;;5.80;0.93;;;16.30;74.90;;;;;;5098284;28;20903;-71
2023/08/28 07:42:53;;;;;;;3.92;0.80;;;16.30;73.00;;;;;;5098797;28;20405;-71
2023/08/28 07:45:20;;;;;;;2.53;0.93;;;16.40;73.10;;;;;;5104186;28;20423;-72
2023/08/28 07:47:45;;;;;;;4.90;0.90;;;16.40;73.60;;;;;;5102311;28;20420;-71
2023/08/28 07:50:11;;;;;;;4.20;0.70;;;16.50;73.70;;;;;;5084584;28;20739;-72
2023/08/28 07:52:36;;;;;;;2.50;0.80;;;16.60;72.20;;;;;;5100983;28;20409;-72
2023/08/28 07:55:02;;;;;;;2.60;0.80;;;16.70;71.10;;;;;;5105416;28;20428;-72
2023/08/28 07:57:28;;;;;;;2.20;0.60;;;16.80;71.50;;;;;;5102345;28;20402;-72
2023/08/28 07:59:54;;;;;;;2.63;0.90;;;16.90;71.40;;;;;;5104723;28;20407;-71
2023/08/28 08:02:20;;;;;;;3.13;0.82;;;17.10;71.50;;;;;;5101464;28;21096;-71
2023/08/28 08:04:45;;;;;;;3.67;1.00;;;17.30;69.50;;;;;;5097935;28;20486;-72
2023/08/28 08:07:11;;;;;;;4.78;1.00;;;17.30;68.00;;;;;;5097463;28;20916;-71
2023/08/28 08:09:36;;;;;;;2.57;0.50;;;17.40;67.40;;;;;;5097678;28;20421;-72
2023/08/28 08:12:02;;;;;;;4.10;0.70;;;17.40;65.60;;;;;;5097214;28;20407;-72
2023/08/28 08:14:28;;;;;;;2.13;0.52;;;17.50;63.80;;;;;;5092071;28;20981;-72
2023/08/28 08:16:53;;;;;;;4.67;0.50;;;17.70;64.00;;;;;;5101448;28;20901;-72
2023/08/28 08:19:19;;;;;;;3.95;0.73;;;17.80;62.90;;;;;;5097169;28;20430;-71
2023/08/28 08:21:44;;;;;;;2.70;0.70;;;18.10;62.70;;;;;;5096532;28;20897;-72
2023/08/28 08:24:10;;;;;;;3.45;0.60;;;18.20;59.90;;;;;;5099403;28;20405;-72
2023/08/28 08:26:36;;;;;;;3.00;0.77;;;18.40;58.50;;;;;;5099982;28;20488;-72
2023/08/28 08:29:01;;;;;;;3.28;0.70;;;18.50;55.60;;;;;;5100741;28;20400;-72
2023/08/28 08:31:27;;;;;;;3.90;0.80;;;18.50;51.50;;;;;;5099445;28;20457;-72
2023/08/28 08:33:53;;;;;;;3.72;0.85;;;18.40;50.30;;;;;;5100336;28;20807;-72
2023/08/28 08:36:18;;;;;;;2.37;0.80;;;18.20;47.90;;;;;;5100858;28;20396;-71
2023/08/28 08:38:44;;;;;;;6.67;1.30;;;18.20;49.80;;;;;;5099021;28;20417;-73
2023/08/28 08:41:10;;;;;;;3.55;0.70;;;18.20;52.40;;;;;;5093481;28;20825;-72
2023/08/28 08:43:37;;;;;;;4.15;0.73;;;18.30;53.30;;;;;;5107611;28;20916;-71
2023/08/28 08:46:07;;;;;;;4.40;0.70;;;18.40;50.50;;;;;;5093738;28;20459;-72
2023/08/28 08:48:36;;;;;;;4.20;0.40;;;18.40;46.60;;;;;;5098600;28;20919;-72
2023/08/28 08:51:04;;;;;;;4.07;0.60;;;18.50;45.30;;;;;;5089931;28;20410;-72
2023/08/28 08:54:06;;;;;;;2.15;0.47;;;18.70;36.60;;;;;;5106607;28;21593;-72
2023/08/28 08:56:33;;;;;;;3.25;0.60;;;18.70;34.40;;;;;;5099258;28;20404;-72
2023/08/28 08:59:00;;;;;;;3.00;0.40;;;18.60;30.80;;;;;;5102978;28;20435;-72
2023/08/28 09:01:26;;;;;;;1.98;0.40;;;18.60;33.00;;;;;;5110430;28;20407;-72
2023/08/28 09:03:52;;;;;;;2.50;0.30;;;18.50;24.20;;;;;;5108563;28;20786;-72
2023/08/28 09:06:18;;;;;;;1.93;0.20;;;18.30;19.50;;;;;;5110399;28;20405;-72
2023/08/28 09:08:45;;;;;;;2.40;0.33;;;18.10;19.30;;;;;;5096399;28;20509;-72
2023/08/28 09:11:11;;;;;;;3.17;0.70;;;18.00;20.30;;;;;;5110064;28;20432;-71
2023/08/28 09:13:38;;;;;;;3.30;0.50;;;17.90;21.50;;;;;;5108441;28;20863;-72
2023/08/28 09:16:04;;;;;;;1.98;0.47;;;17.90;25.50;;;;;;5101391;28;20903;-72
2023/08/28 09:18:30;;;;;;;2.30;0.63;;;18.00;25.60;;;;;;5104649;28;20471;-72
2023/08/28 09:21:07;;;;;;;2.97;0.40;;;18.20;25.60;;;;;;5109624;28;20818;-72
2023/08/28 09:23:33;;;;;;;3.22;0.50;;;18.50;26.60;;;;;;5106799;28;20404;-72
2023/08/28 09:25:59;;;;;;;1.67;0.22;;;19.20;31.30;;;;;;5108985;28;20389;-72
2023/08/28 09:28:25;;;;;;;1.00;0.30;;;20.10;22.20;;;;;;5101682;28;20916;-73
2023/08/28 09:30:50;;;;;;;0.90;0.20;;;21.10;8.10;;;;;;5100894;28;20435;-72
2023/08/28 09:33:16;;;;;;;1.45;0.20;;;21.90;1.00;;;;;;5094670;28;20448;-73
2023/08/28 09:35:43;;;;;;;1.70;0.27;;;22.60;1.00;;;;;;5108161;28;20438;-73
2023/08/28 09:38:10;;;;;;;1.98;0.38;;;23.10;1.00;;;;;;5103489;27;20417;-72
2023/08/28 09:40:37;;;;;;;1.25;0.30;;;23.50;1.00;;;;;;5097750;28;20456;-73
2023/08/28 09:43:12;;;;;;;2.92;0.50;;;23.30;1.00;;;;;;5107131;28;20989;-72
2023/08/28 09:45:39;;;;;;;1.25;0.20;;;22.50;1.00;;;;;;5110416;28;20910;-72
2023/08/28 09:48:06;;;;;;;1.83;0.30;;;21.70;1.00;;;;;;5102938;28;20535;-72
2023/08/28 09:50:33;;;;;;;2.15;0.30;;;21.20;1.00;;;;;;5102279;28;20397;-72
2023/08/28 09:53:14;;;;;;;1.98;0.40;;;20.80;1.00;;;;;;5109039;28;20903;-73
2023/08/28 09:55:46;;;;;;;1.77;0.40;;;20.40;1.00;;;;;;5108838;28;21137;-72
2023/08/28 09:58:12;;;;;;;2.45;0.20;;;20.20;1.00;;;;;;5110125;28;20405;-72
2023/08/28 10:00:42;;;;;;;1.85;0.30;;;20.80;1.00;;;;;;5106969;28;20422;-73
2023/08/28 10:03:10;;;;;;;1.98;0.40;;;21.80;1.00;;;;;;5099871;28;20412;-72
2023/08/28 10:05:37;;;;;;;1.73;0.20;;;22.80;1.00;;;;;;5108177;28;20497;-73
2023/08/28 10:08:08;;;;;;;1.80;0.40;;;23.70;1.00;;;;;;5099508;28;20836;-73
2023/08/28 10:10:38;;;;;;;3.45;0.40;;;24.30;1.00;;;;;;5104909;28;20483;-73
2023/08/28 10:13:05;;;;;;;2.45;0.40;;;24.80;1.00;;;;;;5109127;28;20407;-73
2023/08/28 10:15:44;;;;;;;2.17;0.35;;;25.10;1.00;;;;;;5107712;28;20443;-73
2023/08/28 10:18:20;;;;;;;2.63;0.40;;;25.50;1.00;;;;;;5108553;28;20397;-72
2023/08/28 10:20:46;;;;;;;0.95;0.28;;;25.60;1.00;;;;;;5086277;28;20476;-72
2023/08/28 10:23:13;;;;;;;1.13;0.30;;;25.70;99.90;;;;;;5105442;28;20408;-73
2023/08/28 10:25:41;;;;;;;1.42;0.32;;;26.10;99.90;;;;;;5084869;28;20539;-73
2023/08/28 10:28:07;;;;;;;1.08;0.30;;;26.40;99.90;;;;;;5106907;28;20940;-73
2023/08/28 10:30:35;;;;;;;2.00;0.47;;;26.80;99.90;;;;;;5108344;28;20392;-73
2023/08/28 10:33:03;;;;;;;1.00;0.20;;;27.10;99.90;;;;;;5104866;28;20400;-73
2023/08/28 10:35:30;;;;;;;0.70;0.20;;;27.30;99.90;;;;;;5096429;28;20906;-73
2023/08/28 10:37:56;;;;;;;2.17;0.30;;;27.60;99.90;;;;;;5107017;28;20445;-73
2023/08/28 10:40:22;;;;;;;1.95;0.38;;;27.80;99.90;;;;;;5099042;28;20406;-73
2023/08/28 10:42:49;;;;;;;1.40;0.35;;;27.40;99.90;;;;;;5094542;28;20393;-72
2023/08/28 10:45:15;;;;;;;1.75;0.40;;;26.40;27.20;;;;;;5094117;28;20815;-72
2023/08/28 10:47:50;;;;;;;2.45;0.40;;;25.50;99.90;;;;;;5093536;28;20398;-72
2023/08/28 10:50:16;;;;;;;1.90;0.50;;;24.70;99.90;;;;;;5095510;28;20402;-73
2023/08/28 10:52:44;;;;;;;2.55;0.80;;;24.00;99.90;;;;;;5096961;28;20467;-72
2023/08/28 10:55:10;;;;;;;2.08;0.50;;;23.30;99.90;;;;;;5096345;28;20426;-72
2023/08/28 10:57:40;;;;;;;2.92;0.50;;;22.60;1.00;;;;;;5096765;28;20444;-72
2023/08/28 11:00:18;;;;;;;4.72;1.00;;;22.20;1.00;;;;;;5095892;28;20402;-72
2023/08/28 11:03:09;;;;;;;3.50;0.60;;;21.90;1.00;;;;;;5088593;28;20761;-72
2023/08/28 11:05:38;;;;;;;4.43;0.50;;;21.60;1.00;;;;;;5085456;28;20457;-73
2023/08/28 11:08:06;;;;;;;2.65;0.70;;;21.40;1.00;;;;;;5093504;28;20444;-73
2023/08/28 11:10:33;;;;;;;2.42;0.60;;;21.30;1.00;;;;;;5090683;28;20418;-73
2023/08/28 11:13:05;;;;;;;2.55;0.50;;;21.60;1.00;;;;;;5084901;28;20473;-73
2023/08/28 11:15:33;;;;;;;2.33;0.43;;;22.50;1.00;;;;;;5087950;28;20850;-73
2023/08/28 11:18:12;;;;;;;4.00;0.80;;;23.20;1.00;;;;;;5088823;28;20425;-74
2023/08/28 11:20:38;;;;;;;1.05;0.30;;;23.60;1.00;;;;;;5082978;28;20433;-73
2023/08/28 11:23:04;;;;;;;2.60;0.50;;;23.60;1.00;;;;;;5086083;28;20764;-73
2023/08/28 11:25:42;;;;;;;2.90;0.47;;;23.50;1.00;;;;;;5089711;28;20532;-73
2023/08/28 11:28:32;;;;;;;2.50;0.50;;;23.40;1.00;;;;;;5089556;28;20409;-73
2023/08/28 11:31:03;;;;;;;2.45;0.50;;;23.50;1.00;;;;;;5086717;28;20403;-73
2023/08/28 11:33:41;;;;;;;2.75;0.50;;;23.30;1.00;;;;;;5086236;28;20422;-73
2023/08/28 11:36:09;;;;;;;2.67;0.43;;;23.20;1.00;;;;;;5087281;28;20833;-73
2023/08/28 11:38:35;;;;;;;1.88;0.40;;;23.00;1.00;;;;;;5082884;28;20398;-73
2023/08/28 11:41:05;;;;;;;1.83;0.40;;;22.70;1.00;;;;;;5089786;28;20406;-73
2023/08/28 11:43:35;;;;;;;2.00;0.50;;;22.60;1.00;;;;;;5088119;28;20410;-72
2023/08/28 11:46:02;;;;;;;2.80;0.60;;;22.40;1.00;;;;;;5098614;28;20529;-72
2023/08/28 11:48:38;;;;;;;2.07;0.43;;;22.50;1.00;;;;;;5092694;28;20453;-71
2023/08/28 11:51:05;;;;;;;1.75;0.35;;;22.50;1.00;;;;;;5089000;28;20418;-72
2023/08/28 11:53:34;;;;;;;2.08;0.40;;;22.50;1.00;;;;;;5087552;28;20417;-72
2023/08/28 11:56:01;;;;;;;1.90;0.30;;;22.40;1.00;;;;;;5090853;28;20430;-72
2023/08/28 11:58:27;;;;;;;2.47;0.60;;;22.30;1.00;;;;;;5094469;28;20406;-72
2023/08/28 12:00:53;;;;;;;3.45;0.80;;;22.40;1.00;;;;;;5089926;28;20409;-72
2023/08/28 12:03:19;;;;;;;2.88;0.60;;;22.70;1.00;;;;;;5087679;28;20447;-72
2023/08/28 12:05:45;;;;;;;1.70;0.40;;;23.00;1.00;;;;;;5090278;28;20451;-71
2023/08/28 12:08:12;;;;;;;8.48;1.73;;;23.30;1.00;;;;;;5086710;28;20895;-72
2023/08/28 12:10:38;;;;;;;2.50;0.40;;;23.50;1.00;;;;;;5090139;28;20486;-72
2023/08/28 12:13:05;;;;;;;2.45;0.50;;;23.40;1.00;;;;;;5088652;28;20462;-72
2023/08/28 12:15:34;;;;;;;2.38;0.40;;;23.30;1.00;;;;;;5095935;28;20404;-72
2023/08/28 12:18:05;;;;;;;2.65;0.50;;;23.30;1.00;;;;;;5087247;28;20798;-72
2023/08/28 12:20:33;;;;;;;2.40;0.73;;;23.40;1.00;;;;;;5095280;28;20447;-72
2023/08/28 12:22:59;;;;;;;1.55;0.40;;;23.50;1.00;;;;;;5094933;28;20400;-72
2023/08/28 12:25:43;;;;;;;1.38;0.40;;;23.40;1.00;;;;;;5092247;28;20419;-72
2023/08/28 12:28:13;;;;;;;3.80;0.40;;;23.20;1.00;;;;;;5094827;28;20411;-72
2023/08/28 12:30:39;;;;;;;1.27;0.30;;;23.00;1.00;;;;;;5095350;28;20509;-72
2023/08/28 12:33:07;;;;;;;2.55;0.30;;;22.90;1.00;;;;;;5092715;28;20402;-72
2023/08/28 12:35:40;;;;;;;1.70;0.30;;;22.70;1.00;;;;;;5091680;28;20417;-72
2023/08/28 12:38:07;;;;;;;2.17;0.30;;;22.50;1.00;;;;;;5098631;28;20411;-72
2023/08/28 12:40:35;;;;;;;1.65;0.40;;;22.40;1.00;;;;;;5092762;28;20501;-72
2023/08/28 12:43:03;;;;;;;5.65;1.10;;;22.40;1.00;;;;;;5094633;28;20413;-71
2023/08/28 12:45:33;;;;;;;1.20;0.32;;;22.40;1.00;;;;;;5101812;28;20980;-72
2023/08/28 12:47:59;;;;;;;2.08;0.40;;;22.70;1.00;;;;;;5110476;28;20392;-72